sensor_id;sensor_type;location;lat;lon;timestamp;temperature;humidity
16441;DHT22;8330;-33.858;151.184;2024-03-06T00:01:50;26.90;99.90
16441;DHT22;8330;-33.858;151.184;2024-03-06T00:04:21;27.00;99.90
16441;DHT22;8330;-33.858;151.184;2024-03-06T00:06:52;27.10;99.90
16441;DHT22;8330;-33.858;151.184;2024-03-06T00:09:23;27.30;99.90
16441;DHT22;8330;-33.858;151.184;2024-03-06T00:11:55;27.40;99.90
16441;DHT22;8330;-33.858;151.184;2024-03-06T00:14:28;27.40;99.90
16441;DHT22;8330;-33.858;151.184;2024-03-06T00:16:59;27.50;99.90
16441;DHT22;8330;-33.858;151.184;2024-03-06T00:19:32;27.40;99.90
16441;DHT22;8330;-33.858;151.184;2024-03-06T00:22:03;27.40;99.90
16441;DHT22;8330;-33.858;151.184;2024-03-06T00:24:34;27.50;99.90
16441;DHT22;8330;-33.858;151.184;2024-03-06T00:27:05;27.60;99.90
16441;DHT22;8330;-33.858;151.184;2024-03-06T00:29:39;27.60;99.90
16441;DHT22;8330;-33.858;151.184;2024-03-06T00:32:10;27.70;99.90
16441;DHT22;8330;-33.858;151.184;2024-03-06T00:34:41;27.70;99.90
16441;DHT22;8330;-33.858;151.184;2024-03-06T00:37:12;27.70;99.90
16441;DHT22;8330;-33.858;151.184;2024-03-06T00:39:43;27.80;99.90
16441;DHT22;8330;-33.858;151.184;2024-03-06T00:42:15;27.70;99.90
16441;DHT22;8330;-33.858;151.184;2024-03-06T00:44:48;27.80;99.90
16441;DHT22;8330;-33.858;151.184;2024-03-06T00:47:19;27.80;99.90
16441;DHT22;8330;-33.858;151.184;2024-03-06T00:49:50;27.80;99.90
16441;DHT22;8330;-33.858;151.184;2024-03-06T00:52:23;27.80;99.90
16441;DHT22;8330;-33.858;151.184;2024-03-06T00:54:55;27.70;99.90
16441;DHT22;8330;-33.858;151.184;2024-03-06T00:57:26;27.70;99.90
16441;DHT22;8330;-33.858;151.184;2024-03-06T00:59:59;27.60;99.90
16441;DHT22;8330;-33.858;151.184;2024-03-06T01:02:33;27.60;99.90
16441;DHT22;8330;-33.858;151.184;2024-03-06T01:05:05;27.60;99.90
16441;DHT22;8330;-33.858;151.184;2024-03-06T01:07:38;27.60;99.90
16441;DHT22;8330;-33.858;151.184;2024-03-06T01:10:11;27.60;99.90
16441;DHT22;8330;-33.858;151.184;2024-03-06T01:12:42;27.50;99.90
16441;DHT22;8330;-33.858;151.184;2024-03-06T01:15:16;27.50;99.90
16441;DHT22;8330;-33.858;151.184;2024-03-06T01:17:47;27.50;99.90
16441;DHT22;8330;-33.858;151.184;2024-03-06T01:20:18;27.60;99.90
16441;DHT22;8330;-33.858;151.184;2024-03-06T01:22:49;27.60;99.90
16441;DHT22;8330;-33.858;151.184;2024-03-06T01:25:20;27.80;99.90
16441;DHT22;8330;-33.858;151.184;2024-03-06T01:27:51;27.80;99.90
16441;DHT22;8330;-33.858;151.184;2024-03-06T01:30:24;27.70;99.90
16441;DHT22;8330;-33.858;151.184;2024-03-06T01:32:55;27.70;99.90
16441;DHT22;8330;-33.858;151.184;2024-03-06T01:35:26;27.70;99.90
16441;DHT22;8330;-33.858;151.184;2024-03-06T01:37:57;27.70;99.90
16441;DHT22;8330;-33.858;151.184;2024-03-06T01:40:29;27.80;99.90
16441;DHT22;8330;-33.858;151.184;2024-03-06T01:43:00;27.90;99.90
16441;DHT22;8330;-33.858;151.184;2024-03-06T01:45:33;28.00;99.90
16441;DHT22;8330;-33.858;151.184;2024-03-06T01:48:05;28.00;99.90
16441;DHT22;8330;-33.858;151.184;2024-03-06T01:50:37;28.00;99.90
16441;DHT22;8330;-33.858;151.184;2024-03-06T01:53:08;27.90;99.90
16441;DHT22;8330;-33.858;151.184;2024-03-06T01:55:40;27.90;99.90
16441;DHT22;8330;-33.858;151.184;2024-03-06T01:58:11;27.90;99.90
16441;DHT22;8330;-33.858;151.184;2024-03-06T02:00:44;27.90;99.90
16441;DHT22;8330;-33.858;151.184;2024-03-06T02:03:15;27.90;99.90
16441;DHT22;8330;-33.858;151.184;2024-03-06T02:05:48;27.80;99.90
16441;DHT22;8330;-33.858;151.184;2024-03-06T02:08:19;27.70;99.90
16441;DHT22;8330;-33.858;151.184;2024-03-06T02:10:50;27.80;99.90
16441;DHT22;8330;-33.858;151.184;2024-03-06T02:13:21;27.90;99.90
16441;DHT22;8330;-33.858;151.184;2024-03-06T02:15:54;27.90;99.90
16441;DHT22;8330;-33.858;151.184;2024-03-06T02:18:26;27.80;99.90
16441;DHT22;8330;-33.858;151.184;2024-03-06T02:20:59;27.80;99.90
16441;DHT22;8330;-33.858;151.184;2024-03-06T02:23:32;27.70;99.90
16441;DHT22;8330;-33.858;151.184;2024-03-06T02:26:03;27.70;99.90
16441;DHT22;8330;-33.858;151.184;2024-03-06T02:28:35;27.90;99.90
16441;DHT22;8330;-33.858;151.184;2024-03-06T02:31:06;27.90;99.90
16441;DHT22;8330;-33.858;151.184;2024-03-06T02:33:37;28.00;99.90
16441;DHT22;8330;-33.858;151.184;2024-03-06T02:36:10;28.00;99.90
16441;DHT22;8330;-33.858;151.184;2024-03-06T02:38:41;28.10;99.90
16441;DHT22;8330;-33.858;151.184;2024-03-06T02:41:13;28.20;99.90
16441;DHT22;8330;-33.858;151.184;2024-03-06T02:43:44;28.30;99.90
16441;DHT22;8330;-33.858;151.184;2024-03-06T02:46:15;28.30;99.90
16441;DHT22;8330;-33.858;151.184;2024-03-06T02:48:46;28.40;99.90
16441;DHT22;8330;-33.858;151.184;2024-03-06T02:51:21;28.40;99.90
16441;DHT22;8330;-33.858;151.184;2024-03-06T02:53:52;28.40;99.90
16441;DHT22;8330;-33.858;151.184;2024-03-06T02:56:23;28.40;99.90
16441;DHT22;8330;-33.858;151.184;2024-03-06T02:58:54;28.30;99.90
16441;DHT22;8330;-33.858;151.184;2024-03-06T03:01:25;28.20;99.90
16441;DHT22;8330;-33.858;151.184;2024-03-06T03:03:57;28.20;99.90
16441;DHT22;8330;-33.858;151.184;2024-03-06T03:06:30;28.30;99.90
16441;DHT22;8330;-33.858;151.184;2024-03-06T03:09:01;28.20;99.90
16441;DHT22;8330;-33.858;151.184;2024-03-06T03:11:32;28.20;99.90
16441;DHT22;8330;-33.858;151.184;2024-03-06T03:14:04;28.20;99.90
16441;DHT22;8330;-33.858;151.184;2024-03-06T03:16:35;28.20;99.90
16441;DHT22;8330;-33.858;151.184;2024-03-06T03:19:06;28.10;99.90
16441;DHT22;8330;-33.858;151.184;2024-03-06T03:21:39;28.10;99.90
16441;DHT22;8330;-33.858;151.184;2024-03-06T03:24:12;28.00;99.90
16441;DHT22;8330;-33.858;151.184;2024-03-06T03:26:43;28.00;99.90
16441;DHT22;8330;-33.858;151.184;2024-03-06T03:29:14;28.00;99.90
16441;DHT22;8330;-33.858;151.184;2024-03-06T03:31:45;28.00;99.90
16441;DHT22;8330;-33.858;151.184;2024-03-06T03:34:16;28.00;99.90
16441;DHT22;8330;-33.858;151.184;2024-03-06T03:36:50;28.10;99.90
16441;DHT22;8330;-33.858;151.184;2024-03-06T03:39:21;28.10;99.90
16441;DHT22;8330;-33.858;151.184;2024-03-06T03:41:52;28.00;99.90
16441;DHT22;8330;-33.858;151.184;2024-03-06T03:44:24;28.20;99.90
16441;DHT22;8330;-33.858;151.184;2024-03-06T03:46:55;28.20;99.90
16441;DHT22;8330;-33.858;151.184;2024-03-06T03:49:25;28.20;99.90
16441;DHT22;8330;-33.858;151.184;2024-03-06T03:51:58;28.20;99.90
16441;DHT22;8330;-33.858;151.184;2024-03-06T03:54:30;28.40;99.90
16441;DHT22;8330;-33.858;151.184;2024-03-06T03:57:01;28.50;99.90
16441;DHT22;8330;-33.858;151.184;2024-03-06T03:59:32;28.60;99.90
16441;DHT22;8330;-33.858;151.184;2024-03-06T04:02:03;28.50;99.90
16441;DHT22;8330;-33.858;151.184;2024-03-06T04:04:34;28.60;99.90
16441;DHT22;8330;-33.858;151.184;2024-03-06T04:07:07;28.60;99.90
16441;DHT22;8330;-33.858;151.184;2024-03-06T04:09:38;28.50;99.90
16441;DHT22;8330;-33.858;151.184;2024-03-06T04:12:09;28.40;99.90
16441;DHT22;8330;-33.858;151.184;2024-03-06T04:14:40;28.40;99.90
16441;DHT22;8330;-33.858;151.184;2024-03-06T04:17:11;28.40;99.90
16441;DHT22;8330;-33.858;151.184;2024-03-06T04:19:43;28.60;99.90
16441;DHT22;8330;-33.858;151.184;2024-03-06T04:22:19;28.50;99.90
16441;DHT22;8330;-33.858;151.184;2024-03-06T04:24:50;28.50;99.90
16441;DHT22;8330;-33.858;151.184;2024-03-06T04:27:23;28.50;99.90
16441;DHT22;8330;-33.858;151.184;2024-03-06T04:29:54;28.60;99.90
16441;DHT22;8330;-33.858;151.184;2024-03-06T04:32:25;28.60;99.90
16441;DHT22;8330;-33.858;151.184;2024-03-06T04:34:56;28.50;99.90
16441;DHT22;8330;-33.858;151.184;2024-03-06T04:37:29;28.50;99.90
16441;DHT22;8330;-33.858;151.184;2024-03-06T04:40:01;28.50;99.90
16441;DHT22;8330;-33.858;151.184;2024-03-06T04:42:35;28.50;99.90
16441;DHT22;8330;-33.858;151.184;2024-03-06T04:45:12;28.50;99.90
16441;DHT22;8330;-33.858;151.184;2024-03-06T04:47:43;28.50;99.90
16441;DHT22;8330;-33.858;151.184;2024-03-06T04:50:14;28.60;99.90
16441;DHT22;8330;-33.858;151.184;2024-03-06T04:52:47;28.60;99.90
16441;DHT22;8330;-33.858;151.184;2024-03-06T04:55:18;28.60;99.90
16441;DHT22;8330;-33.858;151.184;2024-03-06T04:57:52;28.60;99.90
16441;DHT22;8330;-33.858;151.184;2024-03-06T05:00:23;28.60;99.90
16441;DHT22;8330;-33.858;151.184;2024-03-06T05:02:54;28.50;99.90
16441;DHT22;8330;-33.858;151.184;2024-03-06T05:05:26;28.40;99.90
16441;DHT22;8330;-33.858;151.184;2024-03-06T05:07:59;28.30;99.90
16441;DHT22;8330;-33.858;151.184;2024-03-06T05:10:30;28.30;99.90
16441;DHT22;8330;-33.858;151.184;2024-03-06T05:13:01;28.40;99.90
16441;DHT22;8330;-33.858;151.184;2024-03-06T05:15:32;28.50;99.90
16441;DHT22;8330;-33.858;151.184;2024-03-06T05:18:03;28.50;99.90
16441;DHT22;8330;-33.858;151.184;2024-03-06T05:20:35;28.60;99.90
16441;DHT22;8330;-33.858;151.184;2024-03-06T05:23:08;28.60;99.90
16441;DHT22;8330;-33.858;151.184;2024-03-06T05:25:40;28.70;99.90
16441;DHT22;8330;-33.858;151.184;2024-03-06T05:28:14;28.70;99.90
16441;DHT22;8330;-33.858;151.184;2024-03-06T05:30:45;28.70;99.90
16441;DHT22;8330;-33.858;151.184;2024-03-06T05:33:16;28.70;99.90
16441;DHT22;8330;-33.858;151.184;2024-03-06T05:35:47;28.70;99.90
16441;DHT22;8330;-33.858;151.184;2024-03-06T05:38:20;28.70;99.90
16441;DHT22;8330;-33.858;151.184;2024-03-06T05:40:52;28.80;99.90
16441;DHT22;8330;-33.858;151.184;2024-03-06T05:43:23;28.80;99.90
16441;DHT22;8330;-33.858;151.184;2024-03-06T05:45:54;28.60;99.90
16441;DHT22;8330;-33.858;151.184;2024-03-06T05:48:25;28.60;99.90
16441;DHT22;8330;-33.858;151.184;2024-03-06T05:50:59;28.40;99.90
16441;DHT22;8330;-33.858;151.184;2024-03-06T05:53:36;28.30;99.90
16441;DHT22;8330;-33.858;151.184;2024-03-06T05:56:10;28.20;99.90
16441;DHT22;8330;-33.858;151.184;2024-03-06T05:58:41;27.90;99.90
16441;DHT22;8330;-33.858;151.184;2024-03-06T06:01:15;27.70;99.90
16441;DHT22;8330;-33.858;151.184;2024-03-06T06:03:48;27.60;99.90
16441;DHT22;8330;-33.858;151.184;2024-03-06T06:06:19;27.60;99.90
16441;DHT22;8330;-33.858;151.184;2024-03-06T06:08:52;27.60;99.90
16441;DHT22;8330;-33.858;151.184;2024-03-06T06:11:24;27.50;99.90
16441;DHT22;8330;-33.858;151.184;2024-03-06T06:13:55;27.50;99.90
16441;DHT22;8330;-33.858;151.184;2024-03-06T06:16:26;27.40;99.90
16441;DHT22;8330;-33.858;151.184;2024-03-06T06:18:57;27.40;99.90
16441;DHT22;8330;-33.858;151.184;2024-03-06T06:21:28;27.40;99.90
16441;DHT22;8330;-33.858;151.184;2024-03-06T06:24:01;27.40;99.90
16441;DHT22;8330;-33.858;151.184;2024-03-06T06:26:33;27.40;99.90
16441;DHT22;8330;-33.858;151.184;2024-03-06T06:29:04;27.30;99.90
16441;DHT22;8330;-33.858;151.184;2024-03-06T06:31:36;27.30;99.90
16441;DHT22;8330;-33.858;151.184;2024-03-06T06:34:07;27.20;99.90
16441;DHT22;8330;-33.858;151.184;2024-03-06T06:36:38;27.30;99.90
16441;DHT22;8330;-33.858;151.184;2024-03-06T06:39:11;27.40;99.90
16441;DHT22;8330;-33.858;151.184;2024-03-06T06:41:42;27.30;99.90
16441;DHT22;8330;-33.858;151.184;2024-03-06T06:44:13;27.30;99.90
16441;DHT22;8330;-33.858;151.184;2024-03-06T06:46:44;27.30;99.90
16441;DHT22;8330;-33.858;151.184;2024-03-06T06:49:15;27.10;99.90
16441;DHT22;8330;-33.858;151.184;2024-03-06T06:51:47;27.10;99.90
16441;DHT22;8330;-33.858;151.184;2024-03-06T06:54:20;27.00;99.90
16441;DHT22;8330;-33.858;151.184;2024-03-06T06:56:51;26.90;99.90
16441;DHT22;8330;-33.858;151.184;2024-03-06T06:59:22;26.80;99.90
16441;DHT22;8330;-33.858;151.184;2024-03-06T07:01:53;26.80;99.90
16441;DHT22;8330;-33.858;151.184;2024-03-06T07:04:24;26.70;99.90
16441;DHT22;8330;-33.858;151.184;2024-03-06T07:06:55;26.60;99.90
16441;DHT22;8330;-33.858;151.184;2024-03-06T07:09:28;26.70;99.90
16441;DHT22;8330;-33.858;151.184;2024-03-06T07:11:59;26.70;99.90
16441;DHT22;8330;-33.858;151.184;2024-03-06T07:14:30;26.70;99.90
16441;DHT22;8330;-33.858;151.184;2024-03-06T07:17:01;26.70;99.90
16441;DHT22;8330;-33.858;151.184;2024-03-06T07:19:32;26.60;99.90
16441;DHT22;8330;-33.858;151.184;2024-03-06T07:22:03;26.60;99.90
16441;DHT22;8330;-33.858;151.184;2024-03-06T07:24:36;26.70;99.90
16441;DHT22;8330;-33.858;151.184;2024-03-06T07:27:07;26.60;99.90
16441;DHT22;8330;-33.858;151.184;2024-03-06T07:29:39;26.50;99.90
16441;DHT22;8330;-33.858;151.184;2024-03-06T07:32:09;26.50;99.90
16441;DHT22;8330;-33.858;151.184;2024-03-06T07:34:41;26.50;99.90
16441;DHT22;8330;-33.858;151.184;2024-03-06T07:37:12;26.40;99.90
16441;DHT22;8330;-33.858;151.184;2024-03-06T07:39:45;26.40;99.90
16441;DHT22;8330;-33.858;151.184;2024-03-06T07:42:16;26.30;99.90
16441;DHT22;8330;-33.858;151.184;2024-03-06T07:44:47;26.30;99.90
16441;DHT22;8330;-33.858;151.184;2024-03-06T07:47:18;26.30;99.90
16441;DHT22;8330;-33.858;151.184;2024-03-06T07:49:49;26.20;99.90
16441;DHT22;8330;-33.858;151.184;2024-03-06T07:52:20;26.20;99.90
16441;DHT22;8330;-33.858;151.184;2024-03-06T07:54:54;26.20;99.90
16441;DHT22;8330;-33.858;151.184;2024-03-06T07:57:26;26.20;99.90
16441;DHT22;8330;-33.858;151.184;2024-03-06T07:59:57;26.20;99.90
16441;DHT22;8330;-33.858;151.184;2024-03-06T08:02:28;26.10;99.90
16441;DHT22;8330;-33.858;151.184;2024-03-06T08:04:59;26.00;99.90
16441;DHT22;8330;-33.858;151.184;2024-03-06T08:07:30;26.00;99.90
16441;DHT22;8330;-33.858;151.184;2024-03-06T08:10:03;26.00;99.90
16441;DHT22;8330;-33.858;151.184;2024-03-06T08:12:34;25.90;99.90
16441;DHT22;8330;-33.858;151.184;2024-03-06T08:15:06;25.90;99.90
16441;DHT22;8330;-33.858;151.184;2024-03-06T08:17:40;25.90;99.90
16441;DHT22;8330;-33.858;151.184;2024-03-06T08:20:12;25.80;99.90
16441;DHT22;8330;-33.858;151.184;2024-03-06T08:22:43;25.80;99.90
16441;DHT22;8330;-33.858;151.184;2024-03-06T08:25:16;25.80;99.90
16441;DHT22;8330;-33.858;151.184;2024-03-06T08:27:47;25.80;99.90
16441;DHT22;8330;-33.858;151.184;2024-03-06T08:30:19;25.80;99.90
16441;DHT22;8330;-33.858;151.184;2024-03-06T08:32:50;25.70;99.90
16441;DHT22;8330;-33.858;151.184;2024-03-06T08:35:21;25.70;99.90
16441;DHT22;8330;-33.858;151.184;2024-03-06T08:37:52;25.70;99.90
16441;DHT22;8330;-33.858;151.184;2024-03-06T08:40:25;25.60;99.90
16441;DHT22;8330;-33.858;151.184;2024-03-06T08:42:57;25.60;99.90
16441;DHT22;8330;-33.858;151.184;2024-03-06T08:45:28;25.60;99.90
16441;DHT22;8330;-33.858;151.184;2024-03-06T08:48:02;25.60;99.90
16441;DHT22;8330;-33.858;151.184;2024-03-06T08:50:33;25.60;99.90
16441;DHT22;8330;-33.858;151.184;2024-03-06T08:53:05;25.60;99.90
16441;DHT22;8330;-33.858;151.184;2024-03-06T08:55:39;25.60;99.90
16441;DHT22;8330;-33.858;151.184;2024-03-06T08:58:10;25.50;99.90
16441;DHT22;8330;-33.858;151.184;2024-03-06T09:00:42;25.50;99.90
16441;DHT22;8330;-33.858;151.184;2024-03-06T09:03:13;25.50;99.90
16441;DHT22;8330;-33.858;151.184;2024-03-06T09:05:44;25.50;99.90
16441;DHT22;8330;-33.858;151.184;2024-03-06T09:08:15;25.50;99.90
16441;DHT22;8330;-33.858;151.184;2024-03-06T09:10:48;25.50;99.90
16441;DHT22;8330;-33.858;151.184;2024-03-06T09:13:19;25.50;99.90
16441;DHT22;8330;-33.858;151.184;2024-03-06T09:15:50;25.40;99.90
16441;DHT22;8330;-33.858;151.184;2024-03-06T09:18:21;25.40;99.90
16441;DHT22;8330;-33.858;151.184;2024-03-06T09:20:53;25.40;99.90
16441;DHT22;8330;-33.858;151.184;2024-03-06T09:23:24;25.40;99.90
16441;DHT22;8330;-33.858;151.184;2024-03-06T09:25:59;25.40;99.90
16441;DHT22;8330;-33.858;151.184;2024-03-06T09:28:30;25.30;99.90
16441;DHT22;8330;-33.858;151.184;2024-03-06T09:31:01;25.30;99.90
16441;DHT22;8330;-33.858;151.184;2024-03-06T09:33:32;25.30;99.90
16441;DHT22;8330;-33.858;151.184;2024-03-06T09:36:04;25.30;99.90
16441;DHT22;8330;-33.858;151.184;2024-03-06T09:38:35;25.30;99.90
16441;DHT22;8330;-33.858;151.184;2024-03-06T09:41:09;25.30;99.90
16441;DHT22;8330;-33.858;151.184;2024-03-06T09:43:40;25.30;99.90
16441;DHT22;8330;-33.858;151.184;2024-03-06T09:46:11;25.30;99.90
16441;DHT22;8330;-33.858;151.184;2024-03-06T09:48:47;25.20;99.90
16441;DHT22;8330;-33.858;151.184;2024-03-06T09:51:21;25.20;99.90
16441;DHT22;8330;-33.858;151.184;2024-03-06T09:53:52;25.20;99.90
16441;DHT22;8330;-33.858;151.184;2024-03-06T09:56:25;25.20;99.90
16441;DHT22;8330;-33.858;151.184;2024-03-06T09:58:56;25.20;99.90
16441;DHT22;8330;-33.858;151.184;2024-03-06T10:01:28;25.20;99.90
16441;DHT22;8330;-33.858;151.184;2024-03-06T10:04:00;25.30;99.90
16441;DHT22;8330;-33.858;151.184;2024-03-06T10:06:47;25.30;99.90
16441;DHT22;8330;-33.858;151.184;2024-03-06T10:09:20;25.30;99.90
16441;DHT22;8330;-33.858;151.184;2024-03-06T10:11:53;25.30;99.90
16441;DHT22;8330;-33.858;151.184;2024-03-06T10:14:24;25.20;99.90
16441;DHT22;8330;-33.858;151.184;2024-03-06T10:16:57;25.20;99.90
16441;DHT22;8330;-33.858;151.184;2024-03-06T10:19:29;25.20;99.90
16441;DHT22;8330;-33.858;151.184;2024-03-06T10:22:00;25.20;99.90
16441;DHT22;8330;-33.858;151.184;2024-03-06T10:24:31;25.20;99.90
16441;DHT22;8330;-33.858;151.184;2024-03-06T10:27:04;25.20;99.90
16441;DHT22;8330;-33.858;151.184;2024-03-06T10:29:35;25.20;99.90
16441;DHT22;8330;-33.858;151.184;2024-03-06T10:32:07;25.10;99.90
16441;DHT22;8330;-33.858;151.184;2024-03-06T10:34:38;25.10;99.90
16441;DHT22;8330;-33.858;151.184;2024-03-06T10:37:10;25.20;99.90
16441;DHT22;8330;-33.858;151.184;2024-03-06T10:39:43;25.10;99.90
16441;DHT22;8330;-33.858;151.184;2024-03-06T10:42:17;25.10;99.90
16441;DHT22;8330;-33.858;151.184;2024-03-06T10:44:52;25.10;99.90
16441;DHT22;8330;-33.858;151.184;2024-03-06T10:47:26;25.10;99.90
16441;DHT22;8330;-33.858;151.184;2024-03-06T10:50:01;25.10;99.90
16441;DHT22;8330;-33.858;151.184;2024-03-06T10:52:34;25.10;99.90
16441;DHT22;8330;-33.858;151.184;2024-03-06T10:55:05;25.10;99.90
16441;DHT22;8330;-33.858;151.184;2024-03-06T10:57:40;25.10;99.90
16441;DHT22;8330;-33.858;151.184;2024-03-06T11:00:14;25.10;99.90
16441;DHT22;8330;-33.858;151.184;2024-03-06T11:02:48;25.10;99.90
16441;DHT22;8330;-33.858;151.184;2024-03-06T11:05:19;25.10;99.90
16441;DHT22;8330;-33.858;151.184;2024-03-06T11:07:51;25.10;99.90
16441;DHT22;8330;-33.858;151.184;2024-03-06T11:10:33;25.10;99.90
16441;DHT22;8330;-33.858;151.184;2024-03-06T11:13:20;25.10;99.90
16441;DHT22;8330;-33.858;151.184;2024-03-06T11:15:52;25.00;99.90
16441;DHT22;8330;-33.858;151.184;2024-03-06T11:18:41;25.00;99.90
16441;DHT22;8330;-33.858;151.184;2024-03-06T11:21:31;25.00;99.90
16441;DHT22;8330;-33.858;151.184;2024-03-06T11:24:20;25.00;99.90
16441;DHT22;8330;-33.858;151.184;2024-03-06T11:26:59;24.90;99.90
16441;DHT22;8330;-33.858;151.184;2024-03-06T11:30:06;25.00;99.90
16441;DHT22;8330;-33.858;151.184;2024-03-06T11:32:56;24.90;99.90
16441;DHT22;8330;-33.858;151.184;2024-03-06T11:35:29;24.90;99.90
16441;DHT22;8330;-33.858;151.184;2024-03-06T11:38:01;24.90;99.90
16441;DHT22;8330;-33.858;151.184;2024-03-06T11:40:32;24.90;99.90
16441;DHT22;8330;-33.858;151.184;2024-03-06T11:43:23;24.90;99.90
16441;DHT22;8330;-33.858;151.184;2024-03-06T11:46:08;24.90;99.90
16441;DHT22;8330;-33.858;151.184;2024-03-06T11:48:39;24.90;99.90
16441;DHT22;8330;-33.858;151.184;2024-03-06T11:51:12;24.90;99.90
16441;DHT22;8330;-33.858;151.184;2024-03-06T11:53:43;24.90;99.90
16441;DHT22;8330;-33.858;151.184;2024-03-06T11:56:15;24.90;99.90
16441;DHT22;8330;-33.858;151.184;2024-03-06T11:58:46;24.80;99.90
16441;DHT22;8330;-33.858;151.184;2024-03-06T12:01:20;24.90;99.90
16441;DHT22;8330;-33.858;151.184;2024-03-06T12:03:52;24.90;99.90
16441;DHT22;8330;-33.858;151.184;2024-03-06T12:06:23;24.80;99.90
16441;DHT22;8330;-33.858;151.184;2024-03-06T12:08:55;24.90;99.90
16441;DHT22;8330;-33.858;151.184;2024-03-06T12:11:26;24.90;99.90
16441;DHT22;8330;-33.858;151.184;2024-03-06T12:13:59;24.90;99.90
16441;DHT22;8330;-33.858;151.184;2024-03-06T12:16:32;24.90;99.90
16441;DHT22;8330;-33.858;151.184;2024-03-06T12:19:03;24.90;99.90
16441;DHT22;8330;-33.858;151.184;2024-03-06T12:21:35;24.90;99.90
16441;DHT22;8330;-33.858;151.184;2024-03-06T12:24:08;24.90;99.90
16441;DHT22;8330;-33.858;151.184;2024-03-06T12:26:39;24.90;99.90
16441;DHT22;8330;-33.858;151.184;2024-03-06T12:29:10;24.90;99.90
16441;DHT22;8330;-33.858;151.184;2024-03-06T12:31:43;24.90;99.90
16441;DHT22;8330;-33.858;151.184;2024-03-06T12:34:15;24.90;99.90
16441;DHT22;8330;-33.858;151.184;2024-03-06T12:36:47;24.90;99.90
16441;DHT22;8330;-33.858;151.184;2024-03-06T12:39:19;24.90;99.90
16441;DHT22;8330;-33.858;151.184;2024-03-06T12:41:51;24.90;99.90
16441;DHT22;8330;-33.858;151.184;2024-03-06T12:44:22;24.80;99.90
16441;DHT22;8330;-33.858;151.184;2024-03-06T12:46:55;24.90;99.90
16441;DHT22;8330;-33.858;151.184;2024-03-06T12:49:26;24.90;99.90
16441;DHT22;8330;-33.858;151.184;2024-03-06T12:51:57;24.80;99.90
16441;DHT22;8330;-33.858;151.184;2024-03-06T12:54:28;24.80;99.90
16441;DHT22;8330;-33.858;151.184;2024-03-06T12:56:59;24.80;99.90
16441;DHT22;8330;-33.858;151.184;2024-03-06T12:59:30;24.80;99.90
16441;DHT22;8330;-33.858;151.184;2024-03-06T13:02:04;24.80;99.90
16441;DHT22;8330;-33.858;151.184;2024-03-06T13:04:35;24.80;99.90
16441;DHT22;8330;-33.858;151.184;2024-03-06T13:07:06;24.80;99.90
16441;DHT22;8330;-33.858;151.184;2024-03-06T13:09:37;24.70;99.90
16441;DHT22;8330;-33.858;151.184;2024-03-06T13:12:09;24.80;99.90
16441;DHT22;8330;-33.858;151.184;2024-03-06T13:14:40;24.70;99.90
16441;DHT22;8330;-33.858;151.184;2024-03-06T13:17:13;24.70;99.90
16441;DHT22;8330;-33.858;151.184;2024-03-06T13:19:44;24.70;99.90
16441;DHT22;8330;-33.858;151.184;2024-03-06T13:22:15;24.70;99.90
16441;DHT22;8330;-33.858;151.184;2024-03-06T13:24:47;24.70;99.90
16441;DHT22;8330;-33.858;151.184;2024-03-06T13:27:19;24.70;99.90
16441;DHT22;8330;-33.858;151.184;2024-03-06T13:29:50;24.70;99.90
16441;DHT22;8330;-33.858;151.184;2024-03-06T13:32:23;24.60;99.90
16441;DHT22;8330;-33.858;151.184;2024-03-06T13:34:54;24.60;99.90
16441;DHT22;8330;-33.858;151.184;2024-03-06T13:37:25;24.60;99.90
16441;DHT22;8330;-33.858;151.184;2024-03-06T13:39:56;24.60;99.90
16441;DHT22;8330;-33.858;151.184;2024-03-06T13:42:28;24.60;99.90
16441;DHT22;8330;-33.858;151.184;2024-03-06T13:45:00;24.60;99.90
16441;DHT22;8330;-33.858;151.184;2024-03-06T13:47:33;24.60;99.90
16441;DHT22;8330;-33.858;151.184;2024-03-06T13:50:04;24.50;99.90
16441;DHT22;8330;-33.858;151.184;2024-03-06T13:52:36;24.50;99.90
16441;DHT22;8330;-33.858;151.184;2024-03-06T13:55:08;24.40;99.90
16441;DHT22;8330;-33.858;151.184;2024-03-06T13:57:42;24.50;99.90
16441;DHT22;8330;-33.858;151.184;2024-03-06T14:00:13;24.40;99.90
16441;DHT22;8330;-33.858;151.184;2024-03-06T14:02:48;24.30;99.90
16441;DHT22;8330;-33.858;151.184;2024-03-06T14:05:19;24.30;99.90
16441;DHT22;8330;-33.858;151.184;2024-03-06T14:07:53;24.30;99.90
16441;DHT22;8330;-33.858;151.184;2024-03-06T14:10:24;24.30;99.90
16441;DHT22;8330;-33.858;151.184;2024-03-06T14:12:55;24.30;99.90
16441;DHT22;8330;-33.858;151.184;2024-03-06T14:15:26;24.30;99.90
16441;DHT22;8330;-33.858;151.184;2024-03-06T14:17:59;24.30;99.90
16441;DHT22;8330;-33.858;151.184;2024-03-06T14:20:35;24.20;99.90
16441;DHT22;8330;-33.858;151.184;2024-03-06T14:23:07;24.20;99.90
16441;DHT22;8330;-33.858;151.184;2024-03-06T14:25:38;24.20;99.90
16441;DHT22;8330;-33.858;151.184;2024-03-06T14:28:09;24.20;99.90
16441;DHT22;8330;-33.858;151.184;2024-03-06T14:30:40;24.20;99.90
16441;DHT22;8330;-33.858;151.184;2024-03-06T14:33:14;24.20;99.90
16441;DHT22;8330;-33.858;151.184;2024-03-06T14:35:45;24.20;99.90
16441;DHT22;8330;-33.858;151.184;2024-03-06T14:38:17;24.20;99.90
16441;DHT22;8330;-33.858;151.184;2024-03-06T14:40:48;24.20;99.90
16441;DHT22;8330;-33.858;151.184;2024-03-06T14:43:19;24.20;99.90
16441;DHT22;8330;-33.858;151.184;2024-03-06T14:45:50;24.20;99.90
16441;DHT22;8330;-33.858;151.184;2024-03-06T14:48:23;24.20;99.90
16441;DHT22;8330;-33.858;151.184;2024-03-06T14:50:54;24.10;99.90
16441;DHT22;8330;-33.858;151.184;2024-03-06T14:53:25;24.10;99.90
16441;DHT22;8330;-33.858;151.184;2024-03-06T14:55:57;24.10;99.90
16441;DHT22;8330;-33.858;151.184;2024-03-06T14:58:28;24.10;99.90
16441;DHT22;8330;-33.858;151.184;2024-03-06T15:00:59;24.10;99.90
16441;DHT22;8330;-33.858;151.184;2024-03-06T15:03:33;24.00;99.90
16441;DHT22;8330;-33.858;151.184;2024-03-06T15:06:04;24.00;99.90
16441;DHT22;8330;-33.858;151.184;2024-03-06T15:08:36;24.10;99.90
16441;DHT22;8330;-33.858;151.184;2024-03-06T15:11:08;24.10;99.90
16441;DHT22;8330;-33.858;151.184;2024-03-06T15:13:39;24.10;99.90
16441;DHT22;8330;-33.858;151.184;2024-03-06T15:16:10;24.10;99.90
16441;DHT22;8330;-33.858;151.184;2024-03-06T15:18:43;24.10;99.90
16441;DHT22;8330;-33.858;151.184;2024-03-06T15:21:15;24.00;99.90
16441;DHT22;8330;-33.858;151.184;2024-03-06T15:23:46;24.00;99.90
16441;DHT22;8330;-33.858;151.184;2024-03-06T15:26:18;24.00;99.90
16441;DHT22;8330;-33.858;151.184;2024-03-06T15:28:49;24.00;99.90
16441;DHT22;8330;-33.858;151.184;2024-03-06T15:31:21;24.00;99.90
16441;DHT22;8330;-33.858;151.184;2024-03-06T15:33:55;24.00;99.90